createdAt,value
2018-11-25T00:00:11.358Z,52.00
2018-11-25T00:02:39.303Z,52.73
2018-11-25T00:05:08.284Z,53.17
2018-11-25T00:07:36.275Z,48.60
2018-11-25T00:10:05.324Z,52.87
2018-11-25T00:12:33.299Z,48.20
2018-11-25T00:15:01.366Z,50.13
2018-11-25T00:17:29.363Z,55.40
2018-11-25T00:19:57.436Z,46.63
2018-11-25T00:22:28.761Z,47.10
2018-11-25T00:24:56.777Z,53.03
2018-11-25T00:27:24.756Z,53.83
2018-11-25T00:29:52.717Z,49.67
2018-11-25T00:32:20.647Z,50.73
2018-11-25T00:34:48.673Z,51.20
2018-11-25T00:37:20.412Z,55.13
2018-11-25T00:39:48.364Z,55.13
2018-11-25T00:42:16.360Z,52.70
2018-11-25T00:44:44.407Z,51.87
2018-11-25T00:47:12.334Z,52.73
2018-11-25T00:49:40.273Z,52.77
2018-11-25T00:52:11.496Z,48.27
2018-11-25T00:54:39.568Z,52.37
2018-11-25T00:57:07.537Z,54.97
2018-11-25T00:59:35.511Z,45.17
2018-11-25T01:02:03.441Z,47.10
2018-11-25T01:04:31.425Z,52.97
2018-11-25T01:07:02.728Z,55.17
2018-11-25T01:09:30.776Z,49.33
2018-11-25T01:11:58.724Z,51.70
2018-11-25T01:14:26.685Z,50.50
2018-11-25T01:16:54.613Z,50.63
2018-11-25T01:19:22.543Z,52.97
2018-11-25T01:21:50.505Z,47.53
2018-11-25T01:24:18.479Z,49.27
2018-11-25T01:26:46.447Z,56.60
2018-11-25T01:29:14.731Z,47.60
2018-11-25T01:31:42.688Z,50.03
2018-11-25T01:34:10.731Z,47.93
2018-11-25T01:36:38.691Z,45.43
2018-11-25T01:39:07.052Z,48.07
2018-11-25T01:41:35.088Z,46.50
2018-11-25T01:44:03.575Z,48.60
2018-11-25T01:46:31.753Z,55.63
2018-11-25T01:48:59.684Z,54.40
2018-11-25T01:51:27.635Z,48.37
2018-11-25T01:53:55.672Z,53.50
2018-11-25T01:56:23.731Z,48.90
2018-11-25T01:58:51.763Z,51.93
2018-11-25T02:01:19.695Z,50.03
2018-11-25T02:03:47.828Z,52.63
2018-11-25T02:06:15.819Z,53.20
2018-11-25T02:08:43.783Z,49.30
2018-11-25T02:11:11.948Z,51.10
2018-11-25T02:13:39.925Z,50.20
2018-11-25T02:16:07.856Z,53.67
2018-11-25T02:18:35.845Z,54.37
2018-11-25T02:21:04.335Z,51.17
2018-11-25T02:23:32.311Z,54.67
2018-11-25T02:26:00.585Z,53.33
2018-11-25T02:28:28.567Z,53.17
2018-11-25T02:30:56.513Z,50.97
2018-11-25T02:33:24.805Z,47.63
2018-11-25T02:35:52.871Z,52.17
2018-11-25T02:38:20.976Z,52.90
2018-11-25T02:40:49.030Z,44.63
2018-11-25T02:43:17.093Z,50.97
2018-11-25T02:45:45.056Z,47.60
2018-11-25T02:48:13.028Z,49.53
2018-11-25T02:50:40.985Z,49.80
2018-11-25T02:53:08.972Z,51.80
2018-11-25T02:55:37.218Z,48.07
2018-11-25T02:58:05.343Z,49.47
2018-11-25T03:00:33.394Z,47.97
2018-11-25T03:03:01.378Z,46.80
2018-11-25T03:05:29.327Z,47.37
2018-11-25T03:07:57.304Z,44.57
2018-11-25T03:12:58.769Z,45.60
2018-11-25T03:15:26.845Z,50.30
2018-11-25T03:17:54.792Z,47.13
2018-11-25T03:20:22.781Z,49.23
2018-11-25T03:22:50.835Z,45.40
2018-11-25T03:25:19.951Z,49.43
2018-11-25T03:27:47.920Z,47.07
2018-11-25T03:30:17.720Z,46.03
2018-11-25T03:32:46.623Z,53.67
2018-11-25T03:35:14.702Z,51.43
2018-11-25T03:37:42.774Z,50.60
2018-11-25T03:40:14.635Z,48.27
2018-11-25T03:42:42.580Z,45.80
2018-11-25T03:45:14.760Z,46.17
2018-11-25T03:47:42.738Z,48.43
2018-11-25T03:50:11.603Z,47.03
2018-11-25T03:52:39.601Z,41.23
2018-11-25T03:55:14.070Z,45.87
2018-11-25T03:57:42.041Z,47.17
2018-11-25T04:00:12.112Z,44.30
2018-11-25T04:02:40.098Z,43.87
2018-11-25T04:05:09.585Z,44.27
2018-11-25T04:07:37.552Z,45.50
2018-11-25T04:10:10.432Z,46.67
2018-11-25T04:12:38.517Z,42.27
2018-11-25T04:15:09.122Z,44.37
2018-11-25T04:17:37.120Z,46.00
2018-11-25T04:20:06.420Z,46.43
2018-11-25T04:22:34.385Z,44.93
2018-11-25T04:25:02.459Z,45.20
2018-11-25T04:27:30.533Z,41.70
2018-11-25T04:29:58.480Z,45.43
2018-11-25T04:32:26.493Z,42.93
2018-11-25T04:34:55.123Z,42.40
2018-11-25T04:37:23.123Z,40.97
2018-11-25T04:39:51.127Z,42.83
2018-11-25T04:42:19.046Z,39.73
2018-11-25T04:44:47.091Z,43.17
2018-11-25T04:47:15.100Z,50.37
2018-11-25T04:49:43.064Z,43.57
2018-11-25T04:52:11.020Z,42.97
2018-11-25T04:54:39.071Z,45.93
2018-11-25T04:57:07.023Z,42.37
2018-11-25T04:59:35.057Z,43.97
2018-11-25T05:02:03.027Z,40.97
2018-11-25T05:04:30.964Z,45.00
2018-11-25T05:06:58.904Z,48.93
2018-11-25T05:09:26.993Z,41.90
2018-11-25T05:11:54.917Z,43.87
2018-11-25T05:14:23.132Z,46.10
2018-11-25T05:16:51.071Z,44.50
2018-11-25T05:19:19.026Z,44.83
2018-11-25T05:21:47.041Z,43.73
2018-11-25T05:24:15.062Z,45.93
2018-11-25T05:26:43.044Z,47.50
2018-11-25T05:29:11.060Z,45.93
2018-11-25T05:31:39.020Z,51.23
2018-11-25T05:34:07.000Z,44.47
2018-11-25T05:36:34.926Z,44.90
2018-11-25T05:39:02.881Z,40.43
2018-11-25T05:41:37.618Z,52.07
2018-11-25T05:44:05.552Z,41.63
2018-11-25T05:46:33.492Z,42.87
2018-11-25T05:49:01.469Z,45.43
2018-11-25T05:51:30.312Z,44.43
2018-11-25T05:53:58.284Z,51.67
2018-11-25T05:56:26.933Z,45.47
2018-11-25T05:58:54.904Z,47.50
2018-11-25T06:01:22.949Z,47.27
2018-11-25T06:03:51.027Z,50.43
2018-11-25T06:06:19.173Z,49.47
2018-11-25T06:08:47.223Z,47.77
2018-11-25T06:11:15.312Z,48.73
2018-11-25T06:13:46.403Z,50.43
2018-11-25T06:16:14.712Z,47.17
2018-11-25T06:18:42.727Z,50.00
2018-11-25T06:21:10.755Z,52.27
2018-11-25T06:23:38.833Z,50.17
2018-11-25T06:26:06.799Z,50.73
2018-11-25T06:28:34.770Z,46.50
2018-11-25T06:31:02.834Z,47.87
2018-11-25T06:33:30.867Z,50.97
2018-11-25T06:35:58.884Z,53.43
2018-11-25T06:38:26.951Z,50.90
2018-11-25T06:40:54.903Z,57.07
2018-11-25T06:43:23.817Z,54.80
2018-11-25T06:45:51.849Z,57.43
2018-11-25T06:48:19.855Z,65.63
2018-11-25T06:50:47.832Z,59.27
2018-11-25T06:53:15.787Z,61.87
2018-11-25T06:55:43.768Z,55.30
2018-11-25T07:00:44.902Z,56.57
2018-11-25T07:03:12.849Z,56.93
2018-11-25T07:05:40.835Z,54.20
2018-11-25T07:08:08.836Z,57.50
2018-11-25T07:10:36.779Z,51.27
2018-11-25T07:13:08.538Z,55.00
2018-11-25T07:15:36.547Z,48.23
2018-11-25T07:18:04.511Z,49.73
2018-11-25T07:20:32.481Z,47.63
2018-11-25T07:23:00.489Z,53.23
2018-11-25T07:25:28.479Z,45.70
2018-11-25T07:27:56.593Z,48.60
2018-11-25T07:30:25.571Z,48.63
2018-11-25T07:32:53.662Z,45.97
2018-11-25T07:35:22.503Z,44.73
2018-11-25T07:37:50.429Z,43.10
2018-11-25T07:40:19.410Z,47.20
2018-11-25T07:42:47.566Z,47.27
2018-11-25T07:45:19.631Z,51.67
2018-11-25T07:47:47.720Z,48.23
2018-11-25T07:50:15.651Z,44.63
2018-11-25T07:52:44.574Z,47.47
2018-11-25T07:55:14.603Z,45.67
2018-11-25T07:57:42.764Z,45.20
2018-11-25T08:00:14.943Z,46.97
2018-11-25T08:02:43.015Z,42.27
2018-11-25T08:05:12.092Z,45.03
2018-11-25T08:07:40.243Z,45.63
2018-11-25T08:10:11.462Z,43.23
2018-11-25T08:12:39.415Z,44.37
2018-11-25T08:15:12.797Z,42.57
2018-11-25T08:17:40.730Z,50.10
2018-11-25T08:20:11.908Z,41.73
2018-11-25T08:22:39.985Z,39.77
2018-11-25T08:25:12.739Z,39.53
2018-11-25T08:27:40.703Z,41.93
2018-11-25T08:30:14.007Z,43.00
2018-11-25T08:32:42.092Z,40.83
2018-11-25T08:35:10.684Z,42.40
2018-11-25T08:37:38.638Z,37.40
2018-11-25T08:40:09.264Z,42.50
2018-11-25T08:42:37.257Z,39.70
2018-11-25T08:45:06.785Z,38.83
2018-11-25T08:47:34.834Z,41.33
2018-11-25T08:50:02.899Z,43.23
2018-11-25T08:52:30.845Z,39.87
2018-11-25T08:54:58.809Z,39.20
2018-11-25T08:57:26.793Z,42.43
2018-11-25T08:59:54.720Z,40.67
2018-11-25T09:02:22.756Z,40.30
2018-11-25T09:04:50.902Z,45.63
2018-11-25T09:07:18.899Z,40.90
2018-11-25T09:09:46.905Z,41.70
2018-11-25T09:12:15.060Z,41.53
2018-11-25T09:14:43.020Z,43.40
2018-11-25T09:17:11.092Z,36.47
2018-11-25T09:19:39.061Z,36.43
2018-11-25T09:22:07.016Z,41.67
2018-11-25T09:24:34.943Z,41.67
2018-11-25T09:27:02.905Z,36.80
2018-11-25T09:29:31.163Z,42.63
2018-11-25T09:31:59.075Z,39.63
2018-11-25T09:34:27.083Z,42.37
2018-11-25T09:36:55.055Z,38.80
2018-11-25T09:39:22.990Z,39.33
2018-11-25T09:41:50.958Z,39.80
2018-11-25T09:44:18.901Z,43.10
2018-11-25T09:46:46.868Z,39.73
2018-11-25T09:49:14.895Z,38.93
2018-11-25T09:51:43.128Z,41.27
2018-11-25T09:54:11.062Z,40.60
2018-11-25T09:56:39.014Z,39.43
2018-11-25T09:59:06.968Z,39.37
2018-11-25T10:01:38.317Z,40.23
2018-11-25T10:04:06.229Z,45.63
2018-11-25T10:06:34.157Z,41.70
2018-11-25T10:09:02.157Z,46.83
2018-11-25T10:11:30.205Z,52.37
2018-11-25T10:13:58.183Z,50.27
2018-11-25T10:16:29.850Z,44.47
2018-11-25T10:18:57.891Z,41.23
2018-11-25T10:21:25.892Z,39.97
2018-11-25T10:23:53.963Z,47.00
2018-11-25T10:26:21.968Z,39.23
2018-11-25T10:28:50.029Z,43.63
2018-11-25T10:31:17.960Z,38.93
2018-11-25T10:33:46.162Z,41.37
2018-11-25T10:36:14.147Z,45.60
2018-11-25T10:38:42.282Z,40.17
2018-11-25T10:41:10.255Z,41.80
2018-11-25T10:43:38.385Z,42.60
2018-11-25T10:46:06.391Z,45.27
2018-11-25T10:48:34.401Z,45.23
2018-11-25T10:51:02.334Z,41.37
2018-11-25T10:53:30.345Z,41.50
2018-11-25T10:55:58.296Z,37.70
2018-11-25T10:58:26.475Z,39.20
2018-11-25T11:00:54.476Z,36.20
2018-11-25T11:03:28.496Z,38.97
2018-11-25T11:06:02.044Z,42.50
2018-11-25T11:08:30.207Z,38.40
2018-11-25T11:10:58.136Z,40.20
2018-11-25T11:13:26.122Z,38.40
2018-11-25T11:15:54.067Z,45.43
2018-11-25T11:18:22.068Z,38.47
2018-11-25T11:20:50.053Z,42.63
2018-11-25T11:23:18.028Z,39.93
2018-11-25T11:25:46.095Z,38.83
2018-11-25T11:28:14.108Z,40.97
2018-11-25T11:30:42.145Z,42.97
2018-11-25T11:33:13.287Z,37.03
2018-11-25T11:35:41.263Z,41.43
2018-11-25T11:38:09.213Z,37.20
2018-11-25T11:40:37.257Z,42.17
2018-11-25T11:43:05.444Z,41.10
2018-11-25T11:45:33.404Z,38.90
2018-11-25T11:48:01.384Z,43.07
2018-11-25T11:50:29.328Z,42.70
2018-11-25T11:52:57.287Z,38.53
2018-11-25T11:55:25.261Z,41.57
2018-11-25T11:57:54.026Z,38.50
2018-11-25T12:00:26.351Z,39.33
2018-11-25T12:02:54.318Z,35.67
2018-11-25T12:05:22.422Z,37.53
2018-11-25T12:07:50.391Z,39.27
2018-11-25T12:10:18.789Z,36.70
2018-11-25T12:12:47.045Z,36.43
2018-11-25T12:15:19.301Z,38.73
2018-11-25T12:17:47.282Z,45.10
2018-11-25T12:20:15.361Z,42.67
2018-11-25T12:22:43.512Z,38.90
2018-11-25T12:25:12.974Z,36.70
2018-11-25T12:27:41.012Z,34.77
2018-11-25T12:30:11.240Z,36.67
2018-11-25T12:32:39.712Z,39.23
2018-11-25T12:35:08.785Z,36.83
2018-11-25T12:37:36.774Z,41.03
2018-11-25T12:40:09.047Z,34.77
2018-11-25T12:42:36.991Z,37.00
2018-11-25T12:45:06.623Z,37.40
2018-11-25T12:47:34.598Z,36.70
2018-11-25T12:50:02.574Z,40.43
2018-11-25T12:52:30.532Z,41.97
2018-11-25T12:54:58.518Z,40.33
2018-11-25T12:57:26.452Z,42.63
2018-11-25T12:59:54.457Z,50.07
2018-11-25T13:02:22.523Z,40.67
2018-11-25T13:04:50.469Z,40.63
2018-11-25T13:07:18.435Z,42.43
2018-11-25T13:09:46.537Z,48.67
2018-11-25T13:12:14.469Z,46.60
2018-11-25T13:14:42.577Z,42.63
2018-11-25T13:17:10.534Z,43.30
2018-11-25T13:19:38.493Z,44.17
2018-11-25T13:22:06.601Z,44.57
2018-11-25T13:24:34.975Z,49.63
2018-11-25T13:27:02.905Z,44.60
2018-11-25T13:29:30.892Z,51.97
2018-11-25T13:31:59.075Z,51.70
2018-11-25T13:34:27.048Z,43.20
2018-11-25T13:36:55.038Z,45.73
2018-11-25T13:39:23.079Z,47.70
2018-11-25T13:41:51.124Z,46.40
2018-11-25T13:44:19.102Z,49.47
2018-11-25T13:46:47.041Z,47.53
2018-11-25T13:49:14.994Z,47.83
2018-11-25T13:51:42.949Z,52.77
2018-11-25T13:54:11.888Z,51.27
2018-11-25T13:56:39.816Z,52.87
2018-11-25T13:59:07.948Z,47.83
2018-11-25T14:01:35.938Z,46.37
2018-11-25T14:04:03.875Z,51.77
2018-11-25T14:06:31.987Z,49.67
2018-11-25T14:08:59.908Z,57.07
2018-11-25T14:11:27.883Z,59.27
2018-11-25T14:13:55.860Z,50.43
2018-11-25T14:16:23.830Z,54.70
2018-11-25T14:18:51.983Z,57.30
2018-11-25T14:21:20.311Z,51.77
2018-11-25T14:23:48.288Z,53.87
2018-11-25T14:26:23.417Z,48.77
2018-11-25T14:28:50.973Z,52.37
2018-11-25T14:31:18.900Z,49.23
2018-11-25T14:33:46.870Z,54.63
2018-11-25T14:36:14.796Z,51.33
2018-11-25T14:38:42.771Z,53.30
2018-11-25T14:41:10.732Z,55.97
2018-11-25T14:43:38.657Z,56.50
2018-11-25T14:46:06.600Z,55.00
2018-11-25T14:48:34.575Z,55.83
2018-11-25T14:51:02.583Z,56.93
2018-11-25T14:53:30.543Z,54.30
2018-11-25T14:55:58.572Z,53.30
2018-11-25T14:58:26.595Z,49.20
2018-11-25T15:00:55.352Z,52.00
2018-11-25T15:03:22.561Z,57.83
2018-11-25T15:05:50.533Z,49.27
2018-11-25T15:08:26.797Z,50.73
2018-11-25T15:10:54.728Z,51.23
2018-11-25T15:13:22.657Z,51.07
2018-11-25T15:15:50.760Z,55.07
2018-11-25T15:18:18.707Z,52.00
2018-11-25T15:20:46.654Z,51.40
2018-11-25T15:23:15.451Z,56.60
2018-11-25T15:25:46.689Z,53.20
2018-11-25T15:28:14.611Z,58.20
2018-11-25T15:30:42.617Z,60.20
2018-11-25T15:33:10.592Z,55.43
2018-11-25T15:35:38.677Z,60.47
2018-11-25T15:38:07.032Z,61.80
2018-11-25T15:40:35.612Z,60.97
2018-11-25T15:43:03.695Z,68.77
2018-11-25T15:45:31.633Z,67.43
2018-11-25T15:48:07.083Z,71.57
2018-11-25T15:50:35.014Z,72.00
2018-11-25T15:53:02.959Z,71.67
2018-11-25T15:55:30.982Z,74.97
2018-11-25T15:57:58.911Z,74.20
2018-11-25T16:00:26.886Z,71.47
2018-11-25T16:02:55.067Z,75.20
2018-11-25T16:05:26.291Z,73.40
2018-11-25T16:07:54.234Z,75.70
2018-11-25T16:10:22.424Z,70.23
2018-11-25T16:12:51.206Z,76.10
2018-11-25T16:15:20.289Z,82.40
2018-11-25T16:17:48.618Z,80.37
2018-11-25T16:20:19.606Z,79.13
2018-11-25T16:22:48.952Z,69.57
2018-11-25T16:25:22.960Z,75.10
2018-11-25T16:27:53.007Z,69.80
2018-11-25T16:30:20.955Z,71.47
2018-11-25T16:32:48.929Z,73.50
2018-11-25T16:35:16.899Z,76.70
2018-11-25T16:37:44.945Z,78.10
2018-11-25T16:40:14.984Z,78.77
2018-11-25T16:42:42.932Z,72.33
2018-11-25T16:45:12.485Z,70.43
2018-11-25T16:47:40.422Z,76.77
2018-11-25T16:50:11.695Z,77.13
2018-11-25T16:52:43.416Z,76.67
2018-11-25T16:55:12.303Z,72.50
2018-11-25T16:57:40.686Z,73.50
2018-11-25T17:00:15.083Z,73.07
2018-11-25T17:02:43.170Z,75.97
2018-11-25T17:05:13.781Z,82.97
2018-11-25T17:07:41.938Z,68.37
2018-11-25T17:10:10.660Z,78.30
2018-11-25T17:12:38.636Z,78.93
2018-11-25T17:15:19.314Z,76.30
2018-11-25T17:17:47.305Z,72.73
2018-11-25T17:20:15.285Z,77.23
2018-11-25T17:22:43.299Z,82.93
2018-11-25T17:25:12.083Z,76.07
2018-11-25T17:27:39.965Z,75.00
2018-11-25T17:30:11.186Z,72.13
2018-11-25T17:32:39.179Z,71.30
2018-11-25T17:35:10.223Z,72.70
2018-11-25T17:37:38.296Z,71.53
2018-11-25T17:40:08.077Z,70.73
2018-11-25T17:42:36.092Z,73.37
2018-11-25T17:45:04.567Z,65.80
2018-11-25T17:47:32.846Z,80.73
2018-11-25T17:50:00.777Z,73.07
2018-11-25T17:52:28.700Z,71.07
2018-11-25T17:54:56.689Z,67.27
2018-11-25T17:57:24.707Z,69.43
2018-11-25T17:59:52.997Z,65.47
2018-11-25T18:02:20.928Z,70.30
2018-11-25T18:04:48.855Z,73.77
2018-11-25T18:07:17.046Z,73.07
2018-11-25T18:09:44.975Z,69.87
2018-11-25T18:12:12.917Z,74.93
2018-11-25T18:14:41.005Z,73.07
2018-11-25T18:17:10.056Z,63.97
2018-11-25T18:19:38.206Z,66.27
2018-11-25T18:22:11.000Z,72.70
2018-11-25T18:24:38.979Z,65.93
2018-11-25T18:27:06.929Z,72.73
2018-11-25T18:29:38.172Z,63.33
2018-11-25T18:32:06.095Z,70.73
2018-11-25T18:34:34.020Z,67.37
2018-11-25T18:37:02.096Z,65.40
2018-11-25T18:39:30.029Z,67.57
2018-11-25T18:41:57.970Z,66.07
2018-11-25T18:44:26.152Z,62.40
2018-11-25T18:46:54.112Z,66.97
2018-11-25T18:49:22.612Z,65.13
2018-11-25T18:51:50.604Z,64.87
2018-11-25T18:54:18.582Z,67.03
2018-11-25T18:56:46.523Z,71.07
2018-11-25T18:59:14.524Z,51.77
2018-11-25T19:01:52.302Z,65.60
2018-11-25T19:04:20.285Z,63.13
2018-11-25T19:06:48.352Z,59.10
2018-11-25T19:09:16.569Z,59.83
2018-11-25T19:11:44.553Z,62.57
2018-11-25T19:14:12.493Z,60.07
2018-11-25T19:16:40.424Z,61.07
2018-11-25T19:19:09.023Z,60.33
2018-11-25T19:21:37.037Z,60.07
2018-11-25T19:24:05.155Z,57.47
2018-11-25T19:26:33.168Z,60.70
2018-11-25T19:29:01.113Z,53.33
2018-11-25T19:31:29.145Z,55.50
2018-11-25T19:33:57.249Z,52.97
2018-11-25T19:36:25.314Z,54.20
2018-11-25T19:38:53.392Z,50.57
2018-11-25T19:41:22.392Z,54.00
2018-11-25T19:43:50.340Z,55.10
2018-11-25T19:46:18.364Z,53.87
2018-11-25T19:48:46.369Z,50.83
2018-11-25T19:51:17.623Z,58.43
2018-11-25T19:53:42.272Z,50.83
2018-11-25T19:56:10.335Z,46.93
2018-11-25T19:58:38.326Z,53.27
2018-11-25T20:01:06.938Z,36.83
2018-11-25T20:03:34.907Z,39.10
2018-11-25T20:06:02.941Z,37.87
2018-11-25T20:08:31.116Z,41.87
2018-11-25T20:10:59.153Z,40.27
2018-11-25T20:13:27.223Z,46.73
2018-11-25T20:15:59.531Z,45.00
2018-11-25T20:18:27.465Z,40.47
2018-11-25T20:21:01.111Z,41.37
2018-11-25T20:23:29.037Z,40.60
2018-11-25T20:25:57.092Z,42.90
2018-11-25T20:28:25.052Z,42.43
2018-11-25T20:30:53.048Z,41.40
2018-11-25T20:33:26.953Z,41.87
2018-11-25T20:35:54.917Z,42.83
2018-11-25T20:38:28.368Z,37.70
2018-11-25T20:40:57.055Z,44.77
2018-11-25T20:43:24.990Z,39.20
2018-11-25T20:45:58.543Z,37.77
2018-11-25T20:48:26.585Z,42.23
2018-11-25T20:50:54.495Z,45.13
2018-11-25T20:53:28.205Z,39.37
2018-11-25T20:55:56.299Z,42.23
2018-11-25T20:58:24.309Z,37.97
2018-11-25T21:00:52.535Z,38.30
2018-11-25T21:03:21.138Z,40.90
2018-11-25T21:05:49.112Z,37.30
2018-11-25T21:08:17.094Z,33.03
2018-11-25T21:10:45.051Z,33.50
2018-11-25T21:13:16.359Z,34.47
2018-11-25T21:15:44.425Z,39.43
2018-11-25T21:18:12.403Z,36.57
2018-11-25T21:20:40.348Z,39.53
2018-11-25T21:23:08.348Z,34.13
2018-11-25T21:25:36.391Z,34.37
2018-11-25T21:28:04.360Z,35.17
2018-11-25T21:30:32.388Z,31.87
2018-11-25T21:33:00.311Z,35.20
2018-11-25T21:35:28.279Z,35.97
2018-11-25T21:37:56.228Z,34.87
2018-11-25T21:40:24.859Z,38.37
2018-11-25T21:42:52.848Z,37.40
2018-11-25T21:45:21.138Z,40.53
2018-11-25T21:47:49.214Z,37.47
2018-11-25T21:50:20.416Z,41.83
2018-11-25T21:52:48.763Z,37.03
2018-11-25T21:55:17.388Z,38.63
2018-11-25T21:57:45.443Z,37.37
2018-11-25T22:00:14.805Z,36.23
2018-11-25T22:02:42.746Z,34.30
2018-11-25T22:05:11.193Z,35.80
2018-11-25T22:07:39.342Z,35.63
2018-11-25T22:10:08.879Z,36.03
2018-11-25T22:12:37.574Z,30.27
2018-11-25T22:15:07.623Z,33.97
2018-11-25T22:17:35.563Z,35.17
2018-11-25T22:20:04.244Z,33.67
2018-11-25T22:22:32.880Z,35.07
2018-11-25T22:25:00.867Z,35.03
2018-11-25T22:27:28.804Z,34.87
2018-11-25T22:29:56.936Z,37.03
2018-11-25T22:32:24.865Z,35.23
2018-11-25T22:34:52.804Z,35.53
2018-11-25T22:37:20.793Z,34.97
2018-11-25T22:39:48.738Z,34.60
2018-11-25T22:42:16.679Z,33.73
2018-11-25T22:44:44.740Z,36.50
2018-11-25T22:47:12.709Z,42.07
2018-11-25T22:49:40.655Z,32.93
2018-11-25T22:52:08.670Z,32.43
2018-11-25T22:54:36.611Z,35.30
2018-11-25T22:57:04.716Z,37.07
2018-11-25T22:59:32.571Z,33.33
2018-11-25T23:02:00.504Z,35.30
2018-11-25T23:04:40.048Z,36.03
2018-11-25T23:07:08.099Z,36.17
2018-11-25T23:09:36.033Z,31.40
2018-11-25T23:12:04.036Z,34.37
2018-11-25T23:14:31.973Z,32.63
2018-11-25T23:16:59.892Z,33.37
2018-11-25T23:19:27.911Z,32.10
2018-11-25T23:21:55.988Z,32.10
2018-11-25T23:24:23.928Z,32.10
2018-11-25T23:26:51.901Z,33.77
2018-11-25T23:29:19.840Z,33.03
2018-11-25T23:31:47.802Z,32.80
2018-11-25T23:34:15.786Z,32.53
2018-11-25T23:36:43.720Z,32.47
2018-11-25T23:39:11.679Z,32.73
2018-11-25T23:41:39.720Z,33.80
2018-11-25T23:44:07.917Z,34.60
2018-11-25T23:46:35.861Z,36.03
2018-11-25T23:49:03.808Z,33.63
2018-11-25T23:51:31.761Z,34.07
2018-11-25T23:53:59.681Z,31.73
2018-11-25T23:56:27.664Z,36.60
2018-11-25T23:58:55.594Z,32.40
